Time;durP1;ratioP1;P1;durP2;ratioP2;P2;SDS_P1;SDS_P2;PMS_P1;PMS_P2;Temp;Humidity;BMP_temperature;BMP_pressure;BME280_temperature;BME280_humidity;BME280_pressure;Samples;Min_cycle;Max_cycle;Signal;HPM_P1;HPM_P2
2022/06/18 00:01:33;;;;;;;5.20;2.80;;;20.10;1.00;;;;;;5082916;28;20211;-63
2022/06/18 00:04:04;;;;;;;5.32;2.78;;;20.10;1.00;;;;;;5080586;28;20804;-63
2022/06/18 00:06:35;;;;;;;3.03;2.72;;;20.10;1.00;;;;;;5063424;28;20236;-63
2022/06/18 00:09:04;;;;;;;3.45;2.38;;;20.00;1.00;;;;;;5063826;28;20202;-63
2022/06/18 00:14:18;;;;;;;5.50;2.90;;;20.00;1.00;;;;;;5077361;28;20215;-63
2022/06/18 00:16:45;;;;;;;5.35;3.10;;;19.90;1.00;;;;;;5069234;28;20226;-63
2022/06/18 00:19:12;;;;;;;2.97;2.40;;;19.90;1.00;;;;;;5068123;28;20255;-64
2022/06/18 00:21:39;;;;;;;8.52;2.80;;;19.90;1.00;;;;;;5068146;28;20202;-63
2022/06/18 00:24:16;;;;;;;3.20;2.50;;;20.00;1.00;;;;;;5080512;28;20195;-63
2022/06/18 00:26:44;;;;;;;3.58;2.75;;;20.00;1.00;;;;;;5082146;28;20210;-63
2022/06/18 00:29:14;;;;;;;4.68;2.40;;;20.00;1.00;;;;;;5082026;28;20194;-63
2022/06/18 00:31:41;;;;;;;4.43;2.60;;;20.10;1.00;;;;;;5080111;28;20215;-64
2022/06/18 00:34:08;;;;;;;4.65;2.50;;;20.10;1.00;;;;;;5078461;28;20222;-63
2022/06/18 00:36:38;;;;;;;2.60;2.35;;;20.10;1.00;;;;;;5081593;28;20186;-64
2022/06/18 00:39:08;;;;;;;3.10;2.47;;;20.10;99.90;;;;;;5062189;28;20229;-64
2022/06/18 00:41:35;;;;;;;6.22;2.53;;;20.10;1.00;;;;;;5060395;28;20197;-64
2022/06/18 00:44:07;;;;;;;4.82;2.40;;;20.10;1.00;;;;;;5080263;28;20206;-63
2022/06/18 00:46:55;;;;;;;4.32;2.60;;;20.10;1.00;;;;;;5080029;28;20229;-64
2022/06/18 00:49:56;;;;;;;3.63;2.55;;;20.10;99.90;;;;;;5081349;28;20203;-63
2022/06/18 00:52:39;;;;;;;3.28;2.63;;;20.20;99.90;;;;;;5047561;28;20670;-64
2022/06/18 00:55:40;;;;;;;2.95;2.65;;;20.20;1.00;;;;;;5081634;28;20307;-63
2022/06/18 00:58:20;;;;;;;5.18;3.00;;;20.10;1.00;;;;;;5044935;28;20612;-63
2022/06/18 01:00:50;;;;;;;9.32;2.80;;;20.10;1.00;;;;;;5066954;28;20194;-63
2022/06/18 01:03:32;;;;;;;3.60;2.58;;;20.10;1.00;;;;;;5061345;28;20233;-64
2022/06/18 01:06:15;;;;;;;4.25;2.25;;;20.00;1.00;;;;;;5062983;28;20297;-63
2022/06/18 01:08:44;;;;;;;3.65;2.67;;;20.00;1.00;;;;;;5063234;28;20202;-64
2022/06/18 01:11:30;;;;;;;4.45;2.60;;;20.00;1.00;;;;;;5068476;28;20293;-62
2022/06/18 01:13:58;;;;;;;5.05;2.65;;;19.90;1.00;;;;;;5060401;28;20207;-63
2022/06/18 01:16:25;;;;;;;3.20;2.30;;;19.90;1.00;;;;;;5063657;28;20203;-63
2022/06/18 01:18:53;;;;;;;6.00;2.72;;;19.90;1.00;;;;;;5063248;28;20226;-64
2022/06/18 01:21:30;;;;;;;2.60;2.22;;;19.90;1.00;;;;;;5064420;28;20190;-64
2022/06/18 01:24:17;;;;;;;3.75;2.63;;;19.90;1.00;;;;;;5046011;28;20200;-63
2022/06/18 01:26:53;;;;;;;3.80;2.53;;;19.90;1.00;;;;;;5062465;28;20355;-63
2022/06/18 01:29:20;;;;;;;3.03;2.22;;;19.80;1.00;;;;;;5052494;28;20194;-64
2022/06/18 01:31:47;;;;;;;4.03;2.63;;;19.80;1.00;;;;;;5053808;28;20210;-65
2022/06/18 01:34:15;;;;;;;4.78;2.38;;;19.70;1.00;;;;;;5068375;28;20223;-65
2022/06/18 01:36:48;;;;;;;2.90;2.58;;;19.80;1.00;;;;;;5070863;28;20198;-66
2022/06/18 01:39:20;;;;;;;2.75;2.40;;;19.70;1.00;;;;;;5070436;28;20245;-65
2022/06/18 01:41:54;;;;;;;4.65;2.50;;;19.70;1.00;;;;;;5064116;28;20210;-64
2022/06/18 01:44:44;;;;;;;4.88;2.25;;;19.60;1.00;;;;;;5071091;28;20254;-63
2022/06/18 01:47:33;;;;;;;3.00;2.42;;;19.60;1.00;;;;;;5061821;28;20680;-66
2022/06/18 01:50:21;;;;;;;3.33;2.20;;;19.60;1.00;;;;;;5081914;28;20214;-67
2022/06/18 01:53:14;;;;;;;3.80;2.28;;;19.60;1.00;;;;;;5065280;28;20203;-63
2022/06/18 01:55:45;;;;;;;3.58;2.63;;;19.60;1.00;;;;;;5084615;28;20427;-64
2022/06/18 01:58:18;;;;;;;2.97;2.40;;;19.50;1.00;;;;;;5066561;28;20270;-63
2022/06/18 02:00:51;;;;;;;2.50;2.30;;;19.50;1.00;;;;;;5072017;28;20186;-64
2022/06/18 02:03:18;;;;;;;2.53;2.20;;;19.50;1.00;;;;;;5061308;28;20263;-63
2022/06/18 02:05:46;;;;;;;3.95;2.40;;;19.50;1.00;;;;;;5051464;28;20197;-63
2022/06/18 02:08:17;;;;;;;2.80;2.40;;;19.50;1.00;;;;;;5060782;28;20204;-63
2022/06/18 02:10:56;;;;;;;2.85;2.30;;;19.50;1.00;;;;;;5069392;28;20199;-66
2022/06/18 02:13:28;;;;;;;2.67;2.25;;;19.60;1.00;;;;;;5060501;28;20256;-66
2022/06/18 02:15:57;;;;;;;3.13;2.67;;;19.70;1.00;;;;;;5063173;28;20252;-64
2022/06/18 02:18:27;;;;;;;4.38;3.35;;;19.70;1.00;;;;;;5062053;28;20244;-64
2022/06/18 02:20:56;;;;;;;7.13;5.60;;;19.70;1.00;;;;;;5045062;28;20221;-64
2022/06/18 02:23:25;;;;;;;6.97;5.40;;;19.70;1.00;;;;;;5060471;28;20179;-64
2022/06/18 02:25:53;;;;;;;8.27;5.90;;;19.70;1.00;;;;;;5063529;28;20636;-65
2022/06/18 02:28:26;;;;;;;8.10;3.55;;;19.70;1.00;;;;;;5045362;28;20240;-64
2022/06/18 02:31:02;;;;;;;8.43;4.82;;;19.70;1.00;;;;;;5062257;28;20210;-63
2022/06/18 02:33:36;;;;;;;8.57;4.75;;;19.70;1.00;;;;;;5061789;28;20804;-63
2022/06/18 02:36:28;;;;;;;9.32;5.50;;;19.70;1.00;;;;;;5068029;28;20198;-64
2022/06/18 02:39:18;;;;;;;5.00;4.30;;;19.60;1.00;;;;;;5051376;28;20215;-64
2022/06/18 02:41:47;;;;;;;6.18;4.05;;;19.60;1.00;;;;;;5020155;28;20196;-63
2022/06/18 02:44:15;;;;;;;6.57;3.38;;;19.70;1.00;;;;;;5050103;28;20213;-65
2022/06/18 02:46:42;;;;;;;6.70;2.42;;;19.90;99.90;;;;;;5062432;28;20198;-66
2022/06/18 02:49:11;;;;;;;5.75;4.70;;;20.30;99.90;;;;;;5062321;28;20237;-66
2022/06/18 02:51:39;;;;;;;9.02;4.60;;;20.40;99.90;;;;;;5060563;28;20191;-66
2022/06/18 02:54:06;;;;;;;7.82;3.28;;;20.50;99.90;;;;;;5058060;28;20264;-66
2022/06/18 02:56:34;;;;;;;6.45;4.38;;;20.60;99.90;;;;;;5051160;28;20199;-65
2022/06/18 02:59:05;;;;;;;4.97;2.63;;;20.70;99.90;;;;;;5060464;28;20195;-66
2022/06/18 03:01:34;;;;;;;6.05;2.42;;;20.60;99.90;;;;;;5068398;28;20196;-65
2022/06/18 03:04:03;;;;;;;7.13;4.38;;;20.70;99.90;;;;;;5066537;28;20619;-67
2022/06/18 03:06:33;;;;;;;11.43;9.68;;;20.70;99.90;;;;;;5060805;28;20233;-66
2022/06/18 03:09:00;;;;;;;5.72;4.28;;;20.70;99.90;;;;;;5057230;28;20206;-65
2022/06/18 03:14:17;;;;;;;6.20;5.60;;;20.70;99.90;;;;;;5058474;28;20211;-66
2022/06/18 03:16:44;;;;;;;3.95;2.42;;;20.70;99.90;;;;;;5060330;28;20198;-66
2022/06/18 03:19:35;;;;;;;4.95;3.13;;;20.90;99.90;;;;;;5059189;28;20188;-66
2022/06/18 03:22:16;;;;;;;7.78;3.33;;;20.90;99.90;;;;;;5056026;28;20191;-66
2022/06/18 03:24:43;;;;;;;6.60;3.38;;;20.80;99.90;;;;;;5074120;28;20203;-66
2022/06/18 03:27:13;;;;;;;4.57;3.22;;;20.90;99.90;;;;;;5060687;28;20191;-67
2022/06/18 03:29:44;;;;;;;6.97;4.00;;;21.00;99.90;;;;;;5074335;28;20265;-66
2022/06/18 03:32:11;;;;;;;3.67;2.88;;;21.10;99.90;;;;;;5061309;28;20306;-65
2022/06/18 03:34:39;;;;;;;4.75;2.53;;;21.00;99.90;;;;;;5042869;28;20345;-65
2022/06/18 03:37:06;;;;;;;3.47;2.30;;;21.10;99.90;;;;;;5061500;28;20192;-67
2022/06/18 03:39:34;;;;;;;4.30;2.47;;;21.10;99.90;;;;;;5060565;28;20211;-66
2022/06/18 03:42:02;;;;;;;4.20;2.80;;;21.10;99.90;;;;;;5042982;28;20206;-64
2022/06/18 03:44:30;;;;;;;3.42;2.40;;;21.10;99.90;;;;;;5075587;28;20208;-64
2022/06/18 03:47:00;;;;;;;2.60;2.03;;;21.20;99.90;;;;;;5058712;28;20209;-65
2022/06/18 03:49:33;;;;;;;3.30;1.90;;;21.20;99.90;;;;;;5059102;28;20223;-66
2022/06/18 03:52:05;;;;;;;3.40;2.00;;;21.40;99.90;;;;;;5041747;28;20617;-64
2022/06/18 03:54:33;;;;;;;3.83;2.20;;;21.40;99.90;;;;;;5056367;28;20311;-64
2022/06/18 03:57:04;;;;;;;4.82;2.00;;;21.60;99.90;;;;;;5041038;28;20211;-65
2022/06/18 03:59:33;;;;;;;4.43;2.30;;;21.70;99.90;;;;;;5064901;28;20229;-64
2022/06/18 04:02:01;;;;;;;3.78;1.98;;;21.80;99.90;;;;;;5039291;28;20195;-66
2022/06/18 04:04:34;;;;;;;4.05;2.30;;;22.00;99.90;;;;;;5044738;28;20206;-66
2022/06/18 04:07:01;;;;;;;4.40;2.47;;;22.20;99.90;;;;;;5058665;28;20254;-66
2022/06/18 04:09:53;;;;;;;4.07;2.08;;;22.30;99.90;;;;;;5056549;28;20195;-66
2022/06/18 04:12:24;;;;;;;3.70;2.28;;;22.50;99.90;;;;;;5058592;28;20259;-66
2022/06/18 04:15:20;;;;;;;7.97;1.95;;;22.60;99.90;;;;;;5053792;28;20232;-65
2022/06/18 04:17:59;;;;;;;3.45;2.33;;;22.80;99.90;;;;;;5048502;28;20191;-66
2022/06/18 04:20:30;;;;;;;4.60;2.08;;;22.90;99.90;;;;;;5055731;28;20196;-65
2022/06/18 04:22:59;;;;;;;3.72;2.10;;;23.00;99.90;;;;;;5051550;28;20286;-66
2022/06/18 04:25:30;;;;;;;3.25;1.80;;;23.20;99.90;;;;;;5055907;28;20277;-66
2022/06/18 04:27:57;;;;;;;5.70;1.90;;;23.40;99.90;;;;;;5045253;28;20852;-67
2022/06/18 04:30:29;;;;;;;1.92;1.73;;;23.70;99.90;;;;;;5068092;28;20191;-67
2022/06/18 04:33:00;;;;;;;3.75;1.90;;;23.90;99.90;;;;;;5056419;28;20682;-67
2022/06/18 04:35:30;;;;;;;5.70;2.10;;;24.10;99.90;;;;;;5052346;28;20224;-66
2022/06/18 04:38:02;;;;;;;3.60;1.92;;;24.00;99.90;;;;;;5056193;28;20717;-65
2022/06/18 04:40:41;;;;;;;3.13;1.95;;;24.20;99.90;;;;;;5063101;28;20187;-66
2022/06/18 04:43:43;;;;;;;6.15;2.00;;;24.40;99.90;;;;;;5053803;28;20209;-67
2022/06/18 04:46:10;;;;;;;4.63;2.10;;;24.50;99.90;;;;;;5055473;28;20203;-66
2022/06/18 04:48:41;;;;;;;1.92;1.83;;;24.70;99.90;;;;;;5055488;28;20661;-66
2022/06/18 04:51:09;;;;;;;3.33;1.83;;;24.80;99.90;;;;;;5054487;28;20298;-63
2022/06/18 04:53:36;;;;;;;4.40;2.15;;;24.90;99.90;;;;;;5056970;28;20203;-62
2022/06/18 04:56:08;;;;;;;3.22;2.05;;;25.20;99.90;;;;;;5057310;28;20219;-65
2022/06/18 04:58:39;;;;;;;5.40;2.15;;;25.70;99.90;;;;;;5058292;28;20256;-65
2022/06/18 05:01:07;;;;;;;4.47;1.90;;;26.00;99.90;;;;;;5057194;28;20718;-64
2022/06/18 05:03:47;;;;;;;4.88;2.17;;;26.20;99.90;;;;;;5055459;28;20234;-65
2022/06/18 05:06:36;;;;;;;3.58;2.13;;;26.60;99.90;;;;;;5059669;28;20191;-64
2022/06/18 05:09:12;;;;;;;5.85;1.90;;;26.60;99.90;;;;;;5057754;28;20203;-64
2022/06/18 05:11:58;;;;;;;2.92;2.10;;;26.20;99.90;;;;;;5055525;28;20202;-63
2022/06/18 05:14:47;;;;;;;2.92;1.67;;;26.10;99.90;;;;;;5058632;28;20254;-63
2022/06/18 05:17:21;;;;;;;4.10;1.85;;;26.50;99.90;;;;;;5062754;28;20221;-63
2022/06/18 05:19:50;;;;;;;4.18;1.90;;;26.40;99.90;;;;;;5050432;28;20274;-63
2022/06/18 05:22:18;;;;;;;7.03;2.03;;;26.70;99.90;;;;;;5059694;28;20233;-62
2022/06/18 05:24:46;;;;;;;4.03;2.17;;;27.00;99.90;;;;;;5054477;28;20198;-63
2022/06/18 05:27:20;;;;;;;5.97;2.40;;;27.40;99.90;;;;;;5064758;28;20211;-63
2022/06/18 05:29:47;;;;;;;4.03;2.10;;;27.90;99.90;;;;;;5062219;28;20861;-63
2022/06/18 05:32:15;;;;;;;2.45;1.92;;;28.00;99.90;;;;;;5061458;28;20694;-63
2022/06/18 05:34:43;;;;;;;3.00;1.80;;;28.00;99.90;;;;;;5052702;28;20222;-63
2022/06/18 05:37:19;;;;;;;6.57;2.20;;;28.40;99.90;;;;;;5062326;28;20214;-65
2022/06/18 05:39:47;;;;;;;4.13;2.00;;;28.60;99.90;;;;;;5066808;28;20190;-64
2022/06/18 05:42:15;;;;;;;4.53;2.30;;;28.70;99.90;;;;;;5063243;28;20627;-65
2022/06/18 05:44:42;;;;;;;4.43;1.83;;;28.60;99.90;;;;;;5061239;28;20192;-64
2022/06/18 05:47:23;;;;;;;2.75;1.92;;;29.50;99.90;;;;;;5070069;28;20274;-65
2022/06/18 05:49:52;;;;;;;2.63;2.05;;;29.60;99.90;;;;;;5059354;28;20281;-66
2022/06/18 05:52:20;;;;;;;2.72;1.90;;;29.80;99.90;;;;;;5059809;28;20208;-65
2022/06/18 05:54:50;;;;;;;4.65;1.90;;;30.10;99.90;;;;;;5066873;28;20225;-66
2022/06/18 05:57:52;;;;;;;5.28;2.08;;;30.00;99.90;;;;;;5063628;28;20242;-64
2022/06/18 06:00:29;;;;;;;3.58;2.25;;;30.50;99.90;;;;;;5062233;28;20273;-67
2022/06/18 06:02:59;;;;;;;4.97;2.20;;;31.10;99.90;;;;;;5062722;28;20257;-66
2022/06/18 06:05:27;;;;;;;4.82;1.90;;;30.90;99.90;;;;;;5064617;28;20278;-65
2022/06/18 06:07:54;;;;;;;2.22;1.98;;;31.60;99.90;;;;;;5063386;28;20442;-67
2022/06/18 06:13:16;;;;;;;3.45;2.17;;;31.30;99.90;;;;;;5059982;28;20211;-65
2022/06/18 06:15:43;;;;;;;6.15;2.33;;;30.70;99.90;;;;;;5062156;28;20784;-66
2022/06/18 06:18:13;;;;;;;5.85;2.17;;;31.00;99.90;;;;;;5060904;28;20303;-66
2022/06/18 06:20:44;;;;;;;5.70;2.10;;;31.30;99.90;;;;;;5041272;28;20218;-65
2022/06/18 06:23:11;;;;;;;5.78;2.08;;;30.80;99.90;;;;;;5062077;28;20203;-66
2022/06/18 06:25:40;;;;;;;2.97;2.40;;;31.80;99.90;;;;;;5064113;28;20705;-66
2022/06/18 06:28:10;;;;;;;4.03;2.38;;;32.40;99.90;;;;;;5062039;28;20203;-66
2022/06/18 06:30:38;;;;;;;4.88;2.10;;;33.00;99.90;;;;;;5060852;28;20203;-67
2022/06/18 06:33:05;;;;;;;5.68;2.35;;;33.50;99.90;;;;;;5058613;28;20188;-68
2022/06/18 06:35:33;;;;;;;7.55;2.83;;;32.70;99.90;;;;;;5058781;28;20241;-66
2022/06/18 06:38:02;;;;;;;5.07;2.45;;;32.00;99.90;;;;;;5059132;28;20639;-61
2022/06/18 06:40:31;;;;;;;6.82;1.90;;;32.00;99.90;;;;;;5062867;28;20252;-61
2022/06/18 06:43:00;;;;;;;8.60;2.42;;;33.60;99.90;;;;;;5059715;28;20249;-62
2022/06/18 06:45:33;;;;;;;5.18;2.35;;;34.00;99.90;;;;;;5061969;28;20230;-63
2022/06/18 06:48:00;;;;;;;8.43;2.85;;;33.10;99.90;;;;;;5060725;28;20183;-62
2022/06/18 06:50:29;;;;;;;4.72;2.30;;;33.70;99.90;;;;;;5066823;28;20227;-62
2022/06/18 06:52:57;;;;;;;6.38;2.78;;;34.40;99.90;;;;;;5061660;28;20199;-62
2022/06/18 06:58:13;;;;;;;7.15;2.42;;;35.20;99.90;;;;;;5061927;28;20534;-62
2022/06/18 07:00:43;;;;;;;4.50;2.55;;;35.30;97.90;;;;;;5062302;28;20711;-61
2022/06/18 07:03:13;;;;;;;5.57;2.50;;;34.40;99.30;;;;;;5073334;28;20272;-62
2022/06/18 07:05:40;;;;;;;6.40;2.40;;;33.40;98.70;;;;;;5082447;28;20186;-62
2022/06/18 07:08:08;;;;;;;5.03;2.60;;;34.60;98.10;;;;;;5081360;28;20190;-62
2022/06/18 07:10:35;;;;;;;5.07;2.60;;;35.80;98.90;;;;;;5081533;28;20222;-63
2022/06/18 07:13:04;;;;;;;5.30;2.55;;;35.90;97.50;;;;;;5079153;28;20694;-62
2022/06/18 07:15:32;;;;;;;10.55;2.70;;;35.80;96.00;;;;;;5084017;28;20203;-63
2022/06/18 07:18:02;;;;;;;9.80;2.90;;;34.80;94.90;;;;;;5065299;28;20573;-63
2022/06/18 07:20:29;;;;;;;6.88;2.50;;;35.00;97.00;;;;;;5080076;28;20213;-63
2022/06/18 07:22:58;;;;;;;7.78;2.47;;;35.70;95.60;;;;;;5072384;28;20206;-63
2022/06/18 07:25:25;;;;;;;5.65;2.47;;;35.00;94.40;;;;;;5064952;28;20205;-63
2022/06/18 07:27:54;;;;;;;4.38;2.58;;;35.00;94.70;;;;;;5081762;28;20312;-63
2022/06/18 07:30:21;;;;;;;8.50;3.67;;;35.00;94.60;;;;;;5079222;28;20669;-63
2022/06/18 07:32:49;;;;;;;6.22;3.53;;;36.20;95.70;;;;;;5064720;28;20237;-63
2022/06/18 07:35:23;;;;;;;7.63;4.13;;;36.20;95.30;;;;;;5081282;28;20210;-63
2022/06/18 07:37:51;;;;;;;5.25;2.67;;;36.60;95.30;;;;;;5063430;28;20269;-63
2022/06/18 07:40:18;;;;;;;7.75;3.75;;;36.70;92.80;;;;;;5048847;28;20198;-63
2022/06/18 07:42:47;;;;;;;3.85;2.53;;;35.60;92.00;;;;;;5077945;28;20274;-63
2022/06/18 07:45:20;;;;;;;4.18;2.75;;;35.80;92.10;;;;;;5083453;28;20841;-63
2022/06/18 07:47:48;;;;;;;6.32;2.75;;;35.20;92.10;;;;;;5081567;28;20256;-62
2022/06/18 07:50:18;;;;;;;11.20;2.70;;;34.50;92.80;;;;;;5078903;28;20272;-62
2022/06/18 07:52:45;;;;;;;6.30;2.60;;;35.00;92.40;;;;;;5083823;28;20229;-63
2022/06/18 07:55:18;;;;;;;9.13;3.03;;;34.80;92.50;;;;;;5080811;28;20616;-63
2022/06/18 07:57:46;;;;;;;7.57;3.50;;;35.00;93.80;;;;;;5065795;28;20198;-63
2022/06/18 08:00:16;;;;;;;12.43;4.03;;;35.70;93.40;;;;;;5052710;28;20255;-63
2022/06/18 08:02:45;;;;;;;4.75;2.95;;;37.00;92.20;;;;;;5080270;28;20284;-63
2022/06/18 08:05:18;;;;;;;13.82;3.15;;;35.90;91.90;;;;;;5082337;28;20248;-64
2022/06/18 08:07:45;;;;;;;8.77;3.40;;;36.00;91.10;;;;;;5080160;28;20187;-63
2022/06/18 08:10:27;;;;;;;4.20;2.45;;;36.70;91.60;;;;;;5080063;28;20190;-63
2022/06/18 08:12:54;;;;;;;10.32;3.33;;;37.30;90.00;;;;;;5076560;28;20195;-63
2022/06/18 08:15:21;;;;;;;9.27;2.97;;;36.90;88.70;;;;;;5046006;28;20227;-63
2022/06/18 08:17:48;;;;;;;7.28;2.92;;;36.80;87.60;;;;;;5076928;28;20657;-63
2022/06/18 08:20:36;;;;;;;9.07;3.10;;;36.00;89.70;;;;;;5054535;28;20195;-63
2022/06/18 08:23:06;;;;;;;7.97;3.17;;;35.20;86.80;;;;;;5081435;28;20198;-63
2022/06/18 08:25:37;;;;;;;11.50;3.28;;;36.20;90.50;;;;;;5081189;28;20205;-63
2022/06/18 08:28:06;;;;;;;7.88;3.20;;;35.70;86.10;;;;;;5064458;28;20206;-62
2022/06/18 08:30:33;;;;;;;6.68;3.28;;;36.90;90.10;;;;;;5081209;28;20252;-62
2022/06/18 08:33:00;;;;;;;9.85;3.28;;;36.90;87.50;;;;;;5080580;28;20194;-62
2022/06/18 08:35:27;;;;;;;13.43;3.45;;;36.90;85.60;;;;;;5076018;28;20209;-63
2022/06/18 08:37:54;;;;;;;6.40;2.90;;;36.90;84.50;;;;;;5064795;28;20214;-63
2022/06/18 08:40:55;;;;;;;7.15;2.90;;;37.00;84.60;;;;;;5081255;28;20198;-63
2022/06/18 08:43:41;;;;;;;8.23;3.42;;;38.00;86.30;;;;;;5058497;28;20205;-64
2022/06/18 08:46:20;;;;;;;8.77;3.20;;;39.50;81.00;;;;;;5072983;28;20246;-64
2022/06/18 08:49:21;;;;;;;9.10;3.35;;;39.50;79.00;;;;;;5074618;28;20197;-63
2022/06/18 08:52:19;;;;;;;11.55;3.58;;;37.80;73.50;;;;;;5063598;28;20197;-63
2022/06/18 08:55:11;;;;;;;12.63;4.65;;;38.70;77.90;;;;;;5056895;28;20689;-63
2022/06/18 08:57:50;;;;;;;10.38;3.83;;;39.90;78.70;;;;;;5075076;28;20221;-63
2022/06/18 09:00:19;;;;;;;11.50;4.38;;;40.10;75.40;;;;;;5042961;28;20208;-62
2022/06/18 09:02:58;;;;;;;6.53;4.22;;;39.90;78.10;;;;;;5059390;28;20220;-62
2022/06/18 09:06:02;;;;;;;8.73;4.60;;;41.00;72.20;;;;;;5060523;28;20289;-62
2022/06/18 09:09:07;;;;;;;10.55;3.75;;;40.80;69.90;;;;;;5075516;28;20620;-62
2022/06/18 09:11:55;;;;;;;10.15;3.60;;;39.00;64.00;;;;;;5074934;28;20189;-64
2022/06/18 09:14:43;;;;;;;10.32;3.70;;;39.20;64.80;;;;;;5075526;28;20656;-64
2022/06/18 09:17:33;;;;;;;13.25;3.78;;;38.80;66.00;;;;;;5074343;28;20206;-63
2022/06/18 09:20:35;;;;;;;8.27;3.70;;;39.10;66.00;;;;;;5065211;28;20205;-62
2022/06/18 09:23:15;;;;;;;6.70;3.00;;;41.50;66.50;;;;;;5052365;28;20575;-64
2022/06/18 09:25:45;;;;;;;12.45;3.38;;;42.50;59.70;;;;;;5074066;28;20522;-64
2022/06/18 09:28:24;;;;;;;7.68;3.58;;;43.40;61.10;;;;;;5070682;28;20608;-63
2022/06/18 09:31:02;;;;;;;10.90;3.75;;;44.00;59.40;;;;;;5072580;28;20194;-64
2022/06/18 09:33:45;;;;;;;9.50;3.50;;;42.40;55.30;;;;;;5073364;28;20186;-64
2022/06/18 09:36:20;;;;;;;9.40;3.35;;;42.20;55.20;;;;;;5063246;28;20677;-63
2022/06/18 09:39:08;;;;;;;11.80;3.50;;;40.00;52.00;;;;;;5076052;28;20594;-63
2022/06/18 09:41:54;;;;;;;13.52;3.63;;;38.90;53.30;;;;;;5058483;28;20197;-63
2022/06/18 09:44:26;;;;;;;15.85;3.53;;;38.70;56.10;;;;;;5073250;28;20198;-63
2022/06/18 09:47:02;;;;;;;9.57;3.38;;;41.40;58.30;;;;;;5064701;28;20209;-63
2022/06/18 09:49:29;;;;;;;7.50;3.10;;;41.10;53.30;;;;;;5074703;28;20630;-63
2022/06/18 09:52:04;;;;;;;9.80;3.72;;;41.20;53.80;;;;;;5072310;28;20186;-63
2022/06/18 09:54:48;;;;;;;12.52;3.15;;;39.80;52.40;;;;;;5074988;28;20198;-63
2022/06/18 09:57:19;;;;;;;6.55;3.38;;;39.90;55.00;;;;;;5062876;28;21077;-63
2022/06/18 10:00:09;;;;;;;7.80;3.50;;;40.90;54.00;;;;;;5070481;28;20189;-63
2022/06/18 10:02:56;;;;;;;12.55;3.40;;;42.00;78.60;;;;;;5049967;28;20222;-62
2022/06/18 10:08:19;;;;;;;19.88;4.18;;;41.40;47.30;;;;;;5052191;28;20220;-63
2022/06/18 10:10:53;;;;;;;5.57;3.30;;;41.90;50.90;;;;;;5053453;28;20187;-63
2022/06/18 10:13:27;;;;;;;6.65;3.22;;;42.80;50.00;;;;;;5052424;28;20199;-63
2022/06/18 10:16:04;;;;;;;10.77;3.75;;;42.50;47.60;;;;;;5055668;28;20259;-64
2022/06/18 10:18:50;;;;;;;7.80;3.50;;;42.90;47.90;;;;;;5057363;28;20255;-63
2022/06/18 10:21:29;;;;;;;11.75;3.53;;;42.90;47.00;;;;;;5058801;28;20187;-63
2022/06/18 10:24:25;;;;;;;7.57;3.28;;;42.60;45.80;;;;;;5058092;28;20202;-63
2022/06/18 10:27:04;;;;;;;11.38;3.38;;;41.70;46.70;;;;;;5050955;28;20727;-63
2022/06/18 10:29:43;;;;;;;8.23;3.03;;;42.40;47.40;;;;;;5058543;28;20217;-63
2022/06/18 10:32:57;;;;;;;11.45;3.50;;;42.80;46.20;;;;;;5056369;28;20197;-63
2022/06/18 10:35:40;;;;;;;8.18;3.83;;;42.30;40.60;;;;;;5047189;28;20195;-63
2022/06/18 10:38:25;;;;;;;10.30;3.08;;;41.10;34.20;;;;;;5054237;28;20222;-63
2022/06/18 10:40:58;;;;;;;9.02;3.45;;;41.20;45.80;;;;;;5056944;28;20195;-63
2022/06/18 10:43:57;;;;;;;7.53;3.60;;;42.50;46.00;;;;;;5050794;28;20202;-63
2022/06/18 10:46:25;;;;;;;10.07;3.45;;;41.00;43.40;;;;;;5039611;28;20215;-63
2022/06/18 10:49:02;;;;;;;8.82;3.42;;;40.10;40.10;;;;;;5058475;28;20186;-63
2022/06/18 10:51:43;;;;;;;12.32;3.33;;;39.20;41.90;;;;;;5055103;28;20195;-63
2022/06/18 10:54:10;;;;;;;8.90;3.35;;;40.50;45.10;;;;;;5058294;28;20176;-63
2022/06/18 10:56:53;;;;;;;9.15;3.90;;;42.50;45.40;;;;;;5056048;28;20226;-64
2022/06/18 10:59:38;;;;;;;9.60;4.25;;;43.30;46.00;;;;;;5058604;28;20190;-63
2022/06/18 11:02:12;;;;;;;12.13;4.10;;;43.60;43.90;;;;;;5056939;28;20191;-63
2022/06/18 11:05:01;;;;;;;14.30;4.07;;;43.70;40.40;;;;;;5057785;28;20194;-63
2022/06/18 11:07:31;;;;;;;13.13;3.78;;;42.20;36.90;;;;;;5079627;28;20202;-63
2022/06/18 11:10:22;;;;;;;10.88;3.42;;;40.70;39.50;;;;;;5078550;28;20198;-63
2022/06/18 11:12:55;;;;;;;15.70;5.20;;;41.40;43.00;;;;;;5078355;28;20204;-63
2022/06/18 11:15:24;;;;;;;19.75;4.93;;;41.40;41.90;;;;;;5072118;28;20715;-63
2022/06/18 11:17:52;;;;;;;20.38;4.00;;;41.30;40.40;;;;;;5065709;28;20197;-62
2022/06/18 11:20:28;;;;;;;21.65;4.55;;;41.10;40.10;;;;;;5061467;28;20214;-62
2022/06/18 11:23:02;;;;;;;10.80;3.55;;;38.40;37.30;;;;;;5077306;28;20194;-62
2022/06/18 11:25:42;;;;;;;16.60;3.72;;;39.80;40.40;;;;;;5060943;28;20676;-62
2022/06/18 11:28:28;;;;;;;14.77;3.35;;;39.80;40.10;;;;;;5044707;28;20201;-64
2022/06/18 11:30:56;;;;;;;11.93;3.47;;;39.70;39.30;;;;;;5076963;28;20209;-64
2022/06/18 11:33:36;;;;;;;14.00;3.50;;;38.60;39.40;;;;;;5061650;28;20201;-63
2022/06/18 11:36:15;;;;;;;15.20;4.20;;;39.40;39.30;;;;;;5077837;28;20197;-63
2022/06/18 11:38:53;;;;;;;15.35;3.92;;;39.00;41.00;;;;;;5057541;28;20210;-64
2022/06/18 11:41:42;;;;;;;11.25;3.70;;;39.10;39.10;;;;;;5074558;28;20205;-65
2022/06/18 11:44:22;;;;;;;17.17;3.85;;;39.40;41.00;;;;;;5075035;28;20211;-63
2022/06/18 11:46:55;;;;;;;11.82;3.42;;;39.10;39.70;;;;;;5076744;28;20209;-63
2022/06/18 11:49:35;;;;;;;10.68;3.67;;;38.10;38.80;;;;;;5079297;28;20197;-63
2022/06/18 11:52:08;;;;;;;13.60;3.60;;;37.90;39.60;;;;;;5077649;28;20201;-64
2022/06/18 11:55:03;;;;;;;12.27;3.78;;;38.80;40.80;;;;;;5057914;28;20202;-64
2022/06/18 11:57:35;;;;;;;12.13;3.30;;;38.50;38.60;;;;;;5080927;28;20586;-64
2022/06/18 12:00:24;;;;;;;11.13;3.45;;;38.20;38.10;;;;;;5082104;28;20247;-64
2022/06/18 12:03:21;;;;;;;16.42;3.58;;;37.90;39.90;;;;;;5049378;28;20588;-62
2022/06/18 12:05:56;;;;;;;19.58;3.63;;;37.60;38.80;;;;;;5079096;28;20201;-64
2022/06/18 12:08:24;;;;;;;12.10;3.97;;;39.10;40.60;;;;;;5077394;28;20199;-63
2022/06/18 12:11:06;;;;;;;9.77;3.53;;;38.20;38.00;;;;;;5064550;28;20206;-63
2022/06/18 12:13:35;;;;;;;13.40;4.15;;;37.70;39.20;;;;;;5037537;28;20551;-64
2022/06/18 12:16:07;;;;;;;18.60;4.18;;;38.10;40.10;;;;;;5074882;28;20192;-63
2022/06/18 12:18:56;;;;;;;10.93;4.10;;;37.90;38.90;;;;;;5068719;28;21131;-64
2022/06/18 12:21:28;;;;;;;14.57;3.78;;;37.60;38.60;;;;;;5076791;28;20190;-64
2022/06/18 12:24:14;;;;;;;13.82;3.90;;;38.50;40.20;;;;;;5075048;28;20195;-64
2022/06/18 12:26:51;;;;;;;17.98;3.72;;;38.80;38.10;;;;;;5056375;28;20252;-64
2022/06/18 12:29:32;;;;;;;12.73;3.67;;;39.30;39.80;;;;;;5072910;28;20202;-64
2022/06/18 12:32:15;;;;;;;18.73;3.80;;;39.10;39.50;;;;;;5076917;28;20185;-63
2022/06/18 12:35:19;;;;;;;23.33;4.68;;;37.30;35.50;;;;;;5063339;28;20685;-63
2022/06/18 12:37:56;;;;;;;10.75;3.63;;;36.70;37.50;;;;;;5062539;28;20270;-63
2022/06/18 12:40:46;;;;;;;14.73;4.28;;;36.10;36.30;;;;;;5061479;28;20206;-63
2022/06/18 12:43:43;;;;;;;13.57;3.47;;;34.90;37.90;;;;;;5048565;28;20214;-64
2022/06/18 12:46:24;;;;;;;13.98;3.95;;;36.20;41.10;;;;;;5060356;28;20194;-62
2022/06/18 12:49:14;;;;;;;14.73;3.97;;;36.20;40.30;;;;;;5045045;28;20202;-62
2022/06/18 12:52:07;;;;;;;16.33;3.72;;;35.80;40.10;;;;;;5081515;28;20653;-62
2022/06/18 12:55:11;;;;;;;13.80;4.00;;;35.70;41.90;;;;;;5081162;28;20187;-63
2022/06/18 12:58:06;;;;;;;16.75;3.65;;;36.00;40.90;;;;;;5082464;28;20201;-63
2022/06/18 13:00:51;;;;;;;13.20;3.63;;;36.20;39.50;;;;;;5068311;28;20198;-62
2022/06/18 13:03:43;;;;;;;13.95;3.90;;;36.00;39.30;;;;;;5076890;28;20238;-62
2022/06/18 13:06:27;;;;;;;18.02;4.55;;;35.70;40.10;;;;;;5080430;28;20191;-62
2022/06/18 13:09:22;;;;;;;19.95;3.70;;;35.20;40.50;;;;;;5078069;28;20194;-62
2022/06/18 13:12:08;;;;;;;14.63;4.05;;;35.60;40.20;;;;;;5075491;28;20248;-63
2022/06/18 13:14:54;;;;;;;13.07;4.18;;;35.20;40.00;;;;;;5082785;28;20195;-62
2022/06/18 13:17:26;;;;;;;14.10;3.97;;;34.40;40.40;;;;;;5068933;28;20333;-62
2022/06/18 13:20:08;;;;;;;14.93;4.18;;;34.30;40.50;;;;;;5064224;28;20221;-63
2022/06/18 13:22:35;;;;;;;12.32;3.72;;;34.50;42.40;;;;;;5078772;28;20202;-62
2022/06/18 13:31:00;;;;;;;14.02;3.90;;;35.70;43.10;;;;;;5078791;28;20274;-63
2022/06/18 13:33:43;;;;;;;12.82;4.13;;;35.80;41.00;;;;;;5084035;28;20195;-63
2022/06/18 13:36:42;;;;;;;14.20;3.20;;;35.50;43.00;;;;;;5083426;28;20183;-63
2022/06/18 13:39:33;;;;;;;13.13;3.25;;;36.20;44.20;;;;;;5081399;28;20214;-62
2022/06/18 13:42:18;;;;;;;13.80;3.72;;;35.10;41.40;;;;;;5057594;28;20199;-63
2022/06/18 13:45:19;;;;;;;12.88;4.07;;;35.20;44.40;;;;;;5080420;28;20733;-63
2022/06/18 13:47:56;;;;;;;15.98;3.83;;;35.30;43.10;;;;;;5086367;28;20750;-62
2022/06/18 13:50:32;;;;;;;14.38;4.13;;;35.20;43.80;;;;;;5052673;28;20248;-62